OEOXA EYVI-EYVI
Flight info
| Callsign | OEOXA |
|---|---|
| Flight time | 0h 4m |
| Altitude | 5 |
| Route | / |
| Aircraft | AS50/L-SDFY/HB1 |
Departure
| Time | 2026-05-05 11:59 |
|---|---|
| Airport | Vilnius International Airport (EYVI) |
Arrival
| Time | 2026-05-05 12:03 |
|---|---|
| Airport | Vilnius International Airport (EYVI) |
| Time | Latitude | Longitude | Altitude | Speed | Heading |
|---|---|---|---|---|---|
| 2026-05-05 11:35 | 54.63293 | 25.28091 | 593 ft | 0 kts | 112° |
| 2026-05-05 11:46 | 54.63293 | 25.28092 | 593 ft | 0 kts | 114° |
| 2026-05-05 11:47 | 54.63271 | 25.28114 | 597 ft | 6 kts | 106° |
| 2026-05-05 11:47 | 54.63201 | 25.28133 | 603 ft | 20 kts | 199° |
| 2026-05-05 11:47 | 54.63033 | 25.28009 | 602 ft | 22 kts | 192° |
| 2026-05-05 11:47 | 54.62968 | 25.28223 | 601 ft | 25 kts | 36° |
| 2026-05-05 11:48 | 54.63129 | 25.28388 | 632 ft | 56 kts | 24° |
| 2026-05-05 11:48 | 54.63660 | 25.28734 | 822 ft | 99 kts | 13° |
| 2026-05-05 11:48 | 54.64369 | 25.29172 | 1053 ft | 111 kts | 14° |
| 2026-05-05 11:49 | 54.65158 | 25.29499 | 1199 ft | 123 kts | 359° |
| 2026-05-05 11:49 | 54.65990 | 25.29062 | 1191 ft | 129 kts | 329° |
| 2026-05-05 11:49 | 54.66743 | 25.28232 | 1248 ft | 125 kts | 320° |
| 2026-05-05 11:49 | 54.67359 | 25.27201 | 1233 ft | 125 kts | 310° |
| 2026-05-05 11:50 | 54.67980 | 25.26159 | 1210 ft | 121 kts | 324° |
| 2026-05-05 11:50 | 54.68766 | 25.25838 | 1175 ft | 111 kts | 359° |
| 2026-05-05 11:50 | 54.69452 | 25.26009 | 1178 ft | 93 kts | 24° |
| 2026-05-05 11:50 | 54.69599 | 25.26835 | 920 ft | 91 kts | 152° |
| 2026-05-05 11:51 | 54.69180 | 25.27634 | 734 ft | 82 kts | 114° |
| 2026-05-05 11:51 | 54.69050 | 25.28544 | 608 ft | 69 kts | 138° |
| 2026-05-05 11:51 | 54.68992 | 25.28997 | 635 ft | 42 kts | 321° |
| 2026-05-05 11:51 | 54.69124 | 25.28394 | 567 ft | 69 kts | 280° |
| 2026-05-05 11:52 | 54.69206 | 25.27513 | 454 ft | 76 kts | 283° |
| 2026-05-05 11:52 | 54.69499 | 25.26856 | 479 ft | 63 kts | 304° |
| 2026-05-05 11:52 | 54.69568 | 25.26314 | 587 ft | 28 kts | 170° |
| 2026-05-05 11:52 | 54.69549 | 25.26722 | 477 ft | 40 kts | 110° |
| 2026-05-05 11:53 | 54.69504 | 25.27075 | 387 ft | 32 kts | 46° |
| 2026-05-05 11:53 | 54.69555 | 25.26896 | 350 ft | 28 kts | 256° |
| 2026-05-05 11:53 | 54.69562 | 25.26753 | 326 ft | 30 kts | 70° |
| 2026-05-05 11:53 | 54.69513 | 25.27005 | 315 ft | 15 kts | 75° |
| 2026-05-05 11:54 | 54.69517 | 25.27054 | 313 ft | 3 kts | 37° |
| 2026-05-05 11:54 | 54.69518 | 25.27057 | 311 ft | 0 kts | 53° |
| 2026-05-05 11:55 | 54.69480 | 25.27022 | 322 ft | 37 kts | 184° |
| 2026-05-05 11:56 | 54.69201 | 25.27521 | 522 ft | 74 kts | 104° |
| 2026-05-05 11:56 | 54.69038 | 25.28557 | 691 ft | 95 kts | 122° |
| 2026-05-05 11:56 | 54.68716 | 25.29615 | 918 ft | 104 kts | 122° |
| 2026-05-05 11:56 | 54.68260 | 25.30643 | 1043 ft | 111 kts | 140° |
| 2026-05-05 11:57 | 54.67594 | 25.31354 | 1131 ft | 109 kts | 166° |
| 2026-05-05 11:57 | 54.66824 | 25.31563 | 1121 ft | 119 kts | 168° |
| 2026-05-05 11:57 | 54.66035 | 25.32016 | 1166 ft | 122 kts | 164° |
| 2026-05-05 11:57 | 54.65241 | 25.32542 | 1179 ft | 126 kts | 159° |
| 2026-05-05 11:58 | 54.64531 | 25.33408 | 1207 ft | 130 kts | 138° |
| 2026-05-05 11:58 | 54.64046 | 25.34729 | 1213 ft | 136 kts | 121° |
| 2026-05-05 11:58 | 54.63661 | 25.36255 | 1142 ft | 145 kts | 111° |
| 2026-05-05 11:58 | 54.63257 | 25.37856 | 1182 ft | 145 kts | 118° |
| 2026-05-05 11:59 | 54.62690 | 25.39272 | 1298 ft | 141 kts | 131° |
| 2026-05-05 11:59 | 54.62123 | 25.40669 | 1316 ft | 144 kts | 120° |
| 2026-05-05 11:59 | 54.61613 | 25.42185 | 1264 ft | 149 kts | 122° |
| 2026-05-05 11:59 | 54.61232 | 25.43811 | 1236 ft | 150 kts | 108° |
| 2026-05-05 12:00 | 54.61191 | 25.45530 | 1327 ft | 145 kts | 71° |
| 2026-05-05 12:00 | 54.61576 | 25.47078 | 1184 ft | 137 kts | 69° |
| 2026-05-05 12:00 | 54.61939 | 25.48538 | 1045 ft | 122 kts | 62° |
| 2026-05-05 12:00 | 54.62353 | 25.49730 | 969 ft | 114 kts | 54° |
| 2026-05-05 12:01 | 54.62772 | 25.50824 | 899 ft | 105 kts | 58° |
| 2026-05-05 12:01 | 54.63197 | 25.51609 | 974 ft | 85 kts | 11° |
| 2026-05-05 12:01 | 54.63739 | 25.51386 | 992 ft | 78 kts | 340° |
| 2026-05-05 12:01 | 54.64283 | 25.51412 | 968 ft | 80 kts | 3° |
| 2026-05-05 12:02 | 54.64826 | 25.51575 | 974 ft | 75 kts | 14° |
| 2026-05-05 12:02 | 54.65310 | 25.51853 | 874 ft | 75 kts | 7° |
| 2026-05-05 12:02 | 54.65810 | 25.51739 | 746 ft | 71 kts | 336° |
| 2026-05-05 12:02 | 54.66260 | 25.51437 | 648 ft | 66 kts | 338° |
| 2026-05-05 12:03 | 54.66676 | 25.51223 | 563 ft | 52 kts | 340° |
| 2026-05-05 12:03 | 54.66975 | 25.51024 | 605 ft | 43 kts | 333° |
| 2026-05-05 12:03 | 54.67237 | 25.50802 | 717 ft | 41 kts | 297° |
| 2026-05-05 12:03 | 54.67164 | 25.50262 | 829 ft | 53 kts | 240° |
| 2026-05-05 12:04 | 54.66933 | 25.49733 | 981 ft | 61 kts | 185° |
| 2026-05-05 12:04 | 54.66651 | 25.50242 | 999 ft | 76 kts | 132° |
| 2026-05-05 12:04 | 54.66208 | 25.50824 | 788 ft | 80 kts | 164° |
| 2026-05-05 12:04 | 54.65745 | 25.51256 | 811 ft | 69 kts | 105° |
| 2026-05-05 12:05 | 54.65944 | 25.51674 | 771 ft | 55 kts | 336° |
| 2026-05-05 12:05 | 54.66325 | 25.51393 | 591 ft | 58 kts | 340° |
| 2026-05-05 12:05 | 54.66646 | 25.51222 | 538 ft | 32 kts | 328° |
| 2026-05-05 12:05 | 54.66778 | 25.51142 | 542 ft | 9 kts | 326° |
| 2026-05-05 12:06 | 54.66855 | 25.51076 | 597 ft | 38 kts | 337° |
| 2026-05-05 12:06 | 54.67306 | 25.50881 | 743 ft | 85 kts | 335° |
| 2026-05-05 12:06 | 54.67474 | 25.50273 | 1073 ft | 61 kts | 167° |
| 2026-05-05 12:06 | 54.67176 | 25.50972 | 906 ft | 89 kts | 140° |
| 2026-05-05 12:07 | 54.66660 | 25.51348 | 780 ft | 77 kts | 173° |
| 2026-05-05 12:07 | 54.66157 | 25.51806 | 674 ft | 79 kts | 155° |
| 2026-05-05 12:07 | 54.65841 | 25.51835 | 724 ft | 31 kts | 301° |
| 2026-05-05 12:07 | 54.66051 | 25.51554 | 622 ft | 49 kts | 333° |
| 2026-05-05 12:08 | 54.66384 | 25.51371 | 567 ft | 46 kts | 340° |
| 2026-05-05 12:08 | 54.66642 | 25.51221 | 558 ft | 48 kts | 322° |
| 2026-05-05 12:08 | 54.67114 | 25.50941 | 679 ft | 86 kts | 331° |
| 2026-05-05 12:08 | 54.67426 | 25.50165 | 848 ft | 90 kts | 259° |
| 2026-05-05 12:09 | 54.66891 | 25.49630 | 893 ft | 105 kts | 172° |
| 2026-05-05 12:09 | 54.66217 | 25.50294 | 925 ft | 115 kts | 149° |
| 2026-05-05 12:09 | 54.65508 | 25.50944 | 963 ft | 117 kts | 155° |
| 2026-05-05 12:09 | 54.65165 | 25.52035 | 989 ft | 107 kts | 66° |
| 2026-05-05 12:10 | 54.65655 | 25.52388 | 921 ft | 81 kts | 306° |
| 2026-05-05 12:10 | 54.66079 | 25.51640 | 614 ft | 87 kts | 322° |
| 2026-05-05 12:10 | 54.66485 | 25.51061 | 567 ft | 60 kts | 317° |
| 2026-05-05 12:10 | 54.66831 | 25.50497 | 660 ft | 80 kts | 306° |
| 2026-05-05 12:11 | 54.66740 | 25.49706 | 827 ft | 85 kts | 227° |
| 2026-05-05 12:11 | 54.66200 | 25.49825 | 1018 ft | 99 kts | 121° |
| 2026-05-05 12:11 | 54.65762 | 25.50743 | 905 ft | 106 kts | 148° |
| 2026-05-05 12:11 | 54.65154 | 25.51328 | 911 ft | 88 kts | 122° |
| 2026-05-05 12:12 | 54.65219 | 25.51998 | 990 ft | 49 kts | 336° |
| 2026-05-05 12:12 | 54.65621 | 25.51818 | 778 ft | 78 kts | 333° |
| 2026-05-05 12:12 | 54.66121 | 25.51534 | 620 ft | 68 kts | 341° |
| 2026-05-05 12:12 | 54.66501 | 25.51313 | 556 ft | 46 kts | 332° |
| 2026-05-05 12:13 | 54.66678 | 25.51208 | 527 ft | 1 kts | 335° |
| 2026-05-05 12:13 | 54.66804 | 25.51116 | 596 ft | 61 kts | 337° |
| 2026-05-05 12:13 | 54.67303 | 25.50812 | 806 ft | 94 kts | 327° |
| 2026-05-05 12:13 | 54.67950 | 25.50772 | 1082 ft | 106 kts | 38° |
| 2026-05-05 12:14 | 54.68227 | 25.51911 | 1241 ft | 107 kts | 115° |
| 2026-05-05 12:14 | 54.67793 | 25.52855 | 1387 ft | 103 kts | 154° |
| 2026-05-05 12:14 | 54.67147 | 25.53371 | 1171 ft | 107 kts | 171° |
| 2026-05-05 12:14 | 54.66463 | 25.53644 | 1034 ft | 90 kts | 176° |
| 2026-05-05 12:15 | 54.65890 | 25.53758 | 968 ft | 74 kts | 207° |
| 2026-05-05 12:15 | 54.65581 | 25.53091 | 848 ft | 65 kts | 278° |
| 2026-05-05 12:15 | 54.65895 | 25.52702 | 774 ft | 71 kts | 344° |
| 2026-05-05 12:15 | 54.66314 | 25.52371 | 683 ft | 59 kts | 312° |
| 2026-05-05 12:16 | 54.66578 | 25.51922 | 581 ft | 47 kts | 317° |
| 2026-05-05 12:16 | 54.66750 | 25.51675 | 529 ft | 14 kts | 323° |
| 2026-05-05 12:16 | 54.66860 | 25.51524 | 563 ft | 57 kts | 323° |
| 2026-05-05 12:16 | 54.67006 | 25.50901 | 876 ft | 72 kts | 229° |
| 2026-05-05 12:17 | 54.66488 | 25.50529 | 1018 ft | 100 kts | 206° |
| 2026-05-05 12:17 | 54.65740 | 25.50455 | 1144 ft | 113 kts | 177° |
| 2026-05-05 12:17 | 54.64939 | 25.50485 | 1181 ft | 116 kts | 195° |
| 2026-05-05 12:17 | 54.64189 | 25.49936 | 1173 ft | 117 kts | 215° |
| 2026-05-05 12:18 | 54.63495 | 25.49186 | 1240 ft | 118 kts | 223° |
| 2026-05-05 12:18 | 54.62839 | 25.48333 | 1227 ft | 119 kts | 227° |
| 2026-05-05 12:18 | 54.62114 | 25.47620 | 1205 ft | 123 kts | 200° |
| 2026-05-05 12:18 | 54.61248 | 25.47285 | 1168 ft | 129 kts | 194° |
| 2026-05-05 12:19 | 54.60392 | 25.46996 | 1229 ft | 111 kts | 211° |
| 2026-05-05 12:19 | 54.60042 | 25.46129 | 1469 ft | 97 kts | 271° |
| 2026-05-05 12:19 | 54.60192 | 25.44986 | 1487 ft | 102 kts | 306° |
| 2026-05-05 12:19 | 54.60640 | 25.43963 | 1471 ft | 110 kts | 311° |
| 2026-05-05 12:20 | 54.61072 | 25.42846 | 1391 ft | 114 kts | 298° |
| 2026-05-05 12:20 | 54.61458 | 25.41717 | 1429 ft | 109 kts | 301° |
| 2026-05-05 12:20 | 54.61827 | 25.40614 | 1405 ft | 103 kts | 300° |
| 2026-05-05 12:20 | 54.62198 | 25.39609 | 1325 ft | 94 kts | 304° |
| 2026-05-05 12:21 | 54.62530 | 25.38763 | 1414 ft | 78 kts | 296° |
| 2026-05-05 12:21 | 54.62415 | 25.38143 | 1602 ft | 52 kts | 216° |
| 2026-05-05 12:21 | 54.62056 | 25.38112 | 1598 ft | 56 kts | 186° |
| 2026-05-05 12:21 | 54.61693 | 25.38238 | 1567 ft | 48 kts | 185° |
| 2026-05-05 12:22 | 54.61357 | 25.38263 | 1521 ft | 50 kts | 193° |
| 2026-05-05 12:22 | 54.61029 | 25.38195 | 1532 ft | 47 kts | 190° |
| 2026-05-05 12:22 | 54.60682 | 25.38164 | 1656 ft | 58 kts | 192° |
| 2026-05-05 12:22 | 54.60339 | 25.37906 | 1840 ft | 62 kts | 227° |
| 2026-05-05 12:23 | 54.59926 | 25.37268 | 1688 ft | 105 kts | 225° |
| 2026-05-05 12:23 | 54.59362 | 25.36353 | 1520 ft | 108 kts | 229° |
| 2026-05-05 12:23 | 54.58821 | 25.35459 | 1563 ft | 111 kts | 228° |
| 2026-05-05 12:23 | 54.58345 | 25.34268 | 1446 ft | 128 kts | 247° |
| 2026-05-05 12:24 | 54.58102 | 25.32817 | 1491 ft | 129 kts | 257° |
| 2026-05-05 12:24 | 54.57938 | 25.31247 | 1432 ft | 134 kts | 269° |
| 2026-05-05 12:24 | 54.58085 | 25.29741 | 1528 ft | 130 kts | 276° |
| 2026-05-05 12:24 | 54.58237 | 25.28183 | 1431 ft | 137 kts | 278° |
| 2026-05-05 12:25 | 54.58326 | 25.26517 | 1258 ft | 140 kts | 276° |
| 2026-05-05 12:25 | 54.58349 | 25.24862 | 1234 ft | 135 kts | 266° |
| 2026-05-05 12:25 | 54.58396 | 25.23186 | 1025 ft | 143 kts | 282° |
| 2026-05-05 12:25 | 54.58557 | 25.21573 | 1080 ft | 137 kts | 274° |
| 2026-05-05 12:26 | 54.58676 | 25.19987 | 1229 ft | 129 kts | 278° |
| 2026-05-05 12:26 | 54.58690 | 25.18437 | 1275 ft | 130 kts | 266° |
| 2026-05-05 12:26 | 54.58617 | 25.16944 | 1169 ft | 117 kts | 269° |
| 2026-05-05 12:26 | 54.58575 | 25.15640 | 1165 ft | 106 kts | 263° |
| 2026-05-05 12:27 | 54.58238 | 25.14620 | 1245 ft | 102 kts | 228° |
| 2026-05-05 12:27 | 54.57936 | 25.13627 | 1357 ft | 111 kts | 274° |
| 2026-05-05 12:27 | 54.58298 | 25.12306 | 1352 ft | 132 kts | 299° |
| 2026-05-05 12:27 | 54.58525 | 25.10799 | 1324 ft | 135 kts | 262° |
| 2026-05-05 12:28 | 54.58041 | 25.09402 | 1326 ft | 131 kts | 233° |
| 2026-05-05 12:28 | 54.57422 | 25.08190 | 1174 ft | 139 kts | 226° |
| 2026-05-05 12:28 | 54.56751 | 25.07016 | 1240 ft | 132 kts | 228° |
| 2026-05-05 12:28 | 54.56175 | 25.05879 | 1344 ft | 134 kts | 231° |
| 2026-05-05 12:29 | 54.55595 | 25.04575 | 1258 ft | 138 kts | 236° |
| 2026-05-05 12:29 | 54.55010 | 25.03228 | 1176 ft | 145 kts | 236° |
| 2026-05-05 12:29 | 54.54439 | 25.01826 | 1092 ft | 145 kts | 242° |
| 2026-05-05 12:29 | 54.53915 | 25.00350 | 1116 ft | 139 kts | 240° |
| 2026-05-05 12:30 | 54.53288 | 24.99041 | 1026 ft | 147 kts | 224° |
| 2026-05-05 12:30 | 54.52364 | 24.98470 | 1039 ft | 146 kts | 187° |
| 2026-05-05 12:30 | 54.51332 | 24.98496 | 966 ft | 149 kts | 180° |
| 2026-05-05 12:30 | 54.50317 | 24.98675 | 944 ft | 136 kts | 178° |
| 2026-05-05 12:31 | 54.49411 | 24.99019 | 882 ft | 131 kts | 160° |
| 2026-05-05 12:31 | 54.48605 | 24.99804 | 648 ft | 130 kts | 152° |
| 2026-05-05 12:31 | 54.47857 | 25.00618 | 648 ft | 125 kts | 157° |
| 2026-05-05 12:31 | 54.47160 | 25.00528 | 828 ft | 89 kts | 266° |
| 2026-05-05 12:32 | 54.47430 | 24.99927 | 930 ft | 78 kts | 30° |
| 2026-05-05 12:32 | 54.48035 | 25.00062 | 722 ft | 95 kts | 2° |
| 2026-05-05 12:32 | 54.48592 | 24.99695 | 498 ft | 77 kts | 329° |
| 2026-05-05 12:32 | 54.49010 | 24.99344 | 583 ft | 61 kts | 326° |
| 2026-05-05 12:33 | 54.48883 | 24.98866 | 680 ft | 71 kts | 151° |
| 2026-05-05 12:33 | 54.48387 | 24.99297 | 651 ft | 92 kts | 161° |
| 2026-05-05 12:33 | 54.47842 | 24.99744 | 751 ft | 81 kts | 129° |
| 2026-05-05 12:33 | 54.48018 | 25.00245 | 776 ft | 71 kts | 340° |
| 2026-05-05 12:34 | 54.48466 | 24.99804 | 535 ft | 67 kts | 337° |
| 2026-05-05 12:34 | 54.48777 | 24.99479 | 554 ft | 43 kts | 283° |
| 2026-05-05 12:34 | 54.48504 | 24.99402 | 586 ft | 71 kts | 154° |
| 2026-05-05 12:34 | 54.48017 | 24.99825 | 658 ft | 76 kts | 126° |
| 2026-05-05 12:35 | 54.48159 | 25.00263 | 599 ft | 54 kts | 312° |
| 2026-05-05 12:35 | 54.48425 | 24.99848 | 497 ft | 44 kts | 332° |
| 2026-05-05 12:35 | 54.48638 | 24.99656 | 468 ft | 22 kts | 321° |
| 2026-05-05 12:35 | 54.48672 | 24.99629 | 462 ft | 0 kts | 309° |
| 2026-05-05 12:36 | 54.48672 | 24.99628 | 463 ft | 2 kts | 314° |
| 2026-05-05 12:36 | 54.48871 | 24.99499 | 508 ft | 61 kts | 342° |
| 2026-05-05 12:36 | 54.48870 | 24.99170 | 672 ft | 63 kts | 144° |
| 2026-05-05 12:36 | 54.48352 | 24.99550 | 651 ft | 85 kts | 163° |
| 2026-05-05 12:37 | 54.48374 | 24.99969 | 566 ft | 81 kts | 321° |
| 2026-05-05 12:37 | 54.48880 | 24.99419 | 482 ft | 84 kts | 326° |
| 2026-05-05 12:37 | 54.48699 | 24.99339 | 528 ft | 81 kts | 149° |
| 2026-05-05 12:37 | 54.48186 | 24.99950 | 611 ft | 87 kts | 149° |
| 2026-05-05 12:38 | 54.48460 | 25.00190 | 559 ft | 89 kts | 327° |
| 2026-05-05 12:38 | 54.49052 | 24.99592 | 597 ft | 104 kts | 323° |
| 2026-05-05 12:38 | 54.48945 | 24.99240 | 652 ft | 111 kts | 131° |
| 2026-05-05 12:38 | 54.48268 | 24.99829 | 668 ft | 72 kts | 244° |
| 2026-05-05 12:39 | 54.48644 | 24.99288 | 579 ft | 109 kts | 328° |
| 2026-05-05 12:39 | 54.49247 | 24.99248 | 808 ft | 82 kts | 104° |
| 2026-05-05 12:39 | 54.48873 | 24.99426 | 570 ft | 84 kts | 227° |
| 2026-05-05 12:39 | 54.48420 | 24.99141 | 516 ft | 60 kts | 198° |
| 2026-05-05 12:40 | 54.48183 | 24.99211 | 609 ft | 23 kts | 325° |
| 2026-05-05 12:40 | 54.48550 | 24.99176 | 518 ft | 83 kts | 7° |
| 2026-05-05 12:40 | 54.49221 | 24.99296 | 635 ft | 110 kts | 0° |
| 2026-05-05 12:40 | 54.48970 | 24.99685 | 1046 ft | 84 kts | 220° |
| 2026-05-05 12:41 | 54.48342 | 24.99084 | 901 ft | 110 kts | 207° |
| 2026-05-05 12:41 | 54.48027 | 24.98238 | 1242 ft | 80 kts | 315° |
| 2026-05-05 12:41 | 54.48504 | 24.98269 | 1154 ft | 93 kts | 72° |
| 2026-05-05 12:41 | 54.48681 | 24.99377 | 760 ft | 106 kts | 124° |
| 2026-05-05 12:42 | 54.48209 | 25.00187 | 685 ft | 86 kts | 136° |
| 2026-05-05 12:42 | 54.48278 | 25.00696 | 809 ft | 51 kts | 319° |
| 2026-05-05 12:42 | 54.48388 | 24.99927 | 607 ft | 75 kts | 302° |
| 2026-05-05 12:42 | 54.48853 | 24.99463 | 534 ft | 77 kts | 329° |
| 2026-05-05 12:43 | 54.48868 | 24.98979 | 616 ft | 52 kts | 153° |
| 2026-05-05 12:43 | 54.48526 | 24.99367 | 586 ft | 60 kts | 154° |
| 2026-05-05 12:43 | 54.48177 | 24.99785 | 586 ft | 58 kts | 98° |
| 2026-05-05 12:43 | 54.48282 | 24.99978 | 554 ft | 34 kts | 319° |
| 2026-05-05 12:44 | 54.48506 | 24.99762 | 504 ft | 40 kts | 328° |
| 2026-05-05 12:44 | 54.48642 | 24.99662 | 462 ft | 0 kts | 297° |
| 2026-05-05 12:44 | 54.48677 | 24.99616 | 483 ft | 25 kts | 314° |
| 2026-05-05 12:45 | 54.48815 | 24.99180 | 623 ft | 63 kts | 238° |
| 2026-05-05 12:45 | 54.48405 | 24.98817 | 892 ft | 71 kts | 232° |
| 2026-05-05 12:45 | 54.48488 | 24.97913 | 900 ft | 105 kts | 311° |
| 2026-05-05 12:45 | 54.49152 | 24.97215 | 904 ft | 125 kts | 356° |
| 2026-05-05 12:46 | 54.50029 | 24.97570 | 878 ft | 136 kts | 34° |
| 2026-05-05 12:46 | 54.50777 | 24.98603 | 826 ft | 136 kts | 38° |
| 2026-05-05 12:46 | 54.51648 | 24.98868 | 858 ft | 128 kts | 345° |
| 2026-05-05 12:46 | 54.52467 | 24.98383 | 884 ft | 127 kts | 346° |
| 2026-05-05 12:47 | 54.53315 | 24.98657 | 1040 ft | 134 kts | 38° |
| 2026-05-05 12:47 | 54.53970 | 24.99820 | 1260 ft | 134 kts | 47° |
| 2026-05-05 12:47 | 54.54559 | 25.01226 | 1212 ft | 147 kts | 54° |
| 2026-05-05 12:47 | 54.55280 | 25.02477 | 1163 ft | 153 kts | 32° |
| 2026-05-05 12:48 | 54.56211 | 25.03373 | 1026 ft | 156 kts | 26° |
| 2026-05-05 12:48 | 54.57113 | 25.04369 | 1016 ft | 152 kts | 38° |
| 2026-05-05 12:48 | 54.57848 | 25.05651 | 1042 ft | 150 kts | 45° |
| 2026-05-05 12:48 | 54.58611 | 25.06874 | 1093 ft | 148 kts | 38° |
| 2026-05-05 12:49 | 54.59395 | 25.07996 | 1118 ft | 149 kts | 41° |
| 2026-05-05 12:49 | 54.59835 | 25.09587 | 1089 ft | 153 kts | 88° |
| 2026-05-05 12:49 | 54.59868 | 25.11438 | 975 ft | 157 kts | 89° |
| 2026-05-05 12:49 | 54.60267 | 25.13141 | 961 ft | 154 kts | 57° |
| 2026-05-05 12:50 | 54.60984 | 25.14558 | 833 ft | 160 kts | 46° |
| 2026-05-05 12:50 | 54.61775 | 25.15883 | 880 ft | 158 kts | 41° |
| 2026-05-05 12:50 | 54.62611 | 25.17089 | 1005 ft | 156 kts | 40° |
| 2026-05-05 12:50 | 54.63437 | 25.18294 | 1104 ft | 157 kts | 46° |
| 2026-05-05 12:51 | 54.64029 | 25.19828 | 1203 ft | 153 kts | 51° |
| 2026-05-05 12:51 | 54.64873 | 25.20945 | 1103 ft | 153 kts | 25° |
| 2026-05-05 12:51 | 54.65706 | 25.21858 | 1332 ft | 140 kts | 48° |
| 2026-05-05 12:51 | 54.65973 | 25.23430 | 1397 ft | 134 kts | 89° |
| 2026-05-05 12:52 | 54.65868 | 25.24968 | 1342 ft | 124 kts | 107° |
| 2026-05-05 12:52 | 54.65666 | 25.26405 | 1116 ft | 130 kts | 110° |
| 2026-05-05 12:52 | 54.65365 | 25.27884 | 911 ft | 131 kts | 117° |
| 2026-05-05 12:52 | 54.65006 | 25.29225 | 935 ft | 111 kts | 137° |
| 2026-05-05 12:53 | 54.64511 | 25.29549 | 950 ft | 76 kts | 234° |
| 2026-05-05 12:53 | 54.64039 | 25.29005 | 656 ft | 81 kts | 205° |
| 2026-05-05 12:53 | 54.63598 | 25.28704 | 623 ft | 56 kts | 211° |
| 2026-05-05 12:53 | 54.63405 | 25.28567 | 621 ft | 9 kts | 269° |
| 2026-05-05 12:54 | 54.63480 | 25.28329 | 615 ft | 18 kts | 210° |
| 2026-05-05 12:54 | 54.63359 | 25.28237 | 606 ft | 19 kts | 205° |
| 2026-05-05 12:54 | 54.63265 | 25.28146 | 604 ft | 7 kts | 289° |
| 2026-05-05 12:55 | 54.63284 | 25.28109 | 600 ft | 5 kts | 295° |
| 2026-05-05 12:55 | 54.63293 | 25.28086 | 592 ft | 0 kts | 289° |